sensor_id;sensor_type;location;lat;lon;timestamp;pressure;altitude;pressure_sealevel;temperature;humidity
39411;BME280;26579;43.238;23.124;2023-02-04T00:00:06;96585.50;;;7.83;42.91
39411;BME280;26579;43.238;23.124;2023-02-04T00:02:32;96575.84;;;7.85;43.66
39411;BME280;26579;43.238;23.124;2023-02-04T00:04:58;96585.16;;;7.99;43.01
39411;BME280;26579;43.238;23.124;2023-02-04T00:07:23;96583.28;;;8.12;42.29
39411;BME280;26579;43.238;23.124;2023-02-04T00:09:49;96583.03;;;8.27;42.01
39411;BME280;26579;43.238;23.124;2023-02-04T00:12:15;96568.38;;;8.26;40.48
39411;BME280;26579;43.238;23.124;2023-02-04T00:14:41;96583.72;;;8.40;41.88
39411;BME280;26579;43.238;23.124;2023-02-04T00:17:07;96523.97;;;8.19;41.11
39411;BME280;26579;43.238;23.124;2023-02-04T00:19:33;96569.56;;;8.55;40.91
39411;BME280;26579;43.238;23.124;2023-02-04T00:21:58;96580.13;;;8.64;40.48
39411;BME280;26579;43.238;23.124;2023-02-04T00:24:24;96574.38;;;8.60;41.50
39411;BME280;26579;43.238;23.124;2023-02-04T00:26:50;96573.75;;;8.68;40.85
39411;BME280;26579;43.238;23.124;2023-02-04T00:29:15;96576.72;;;8.63;42.52
39411;BME280;26579;43.238;23.124;2023-02-04T00:31:41;96566.25;;;8.53;41.10
39411;BME280;26579;43.238;23.124;2023-02-04T00:34:07;96570.94;;;8.59;42.30
39411;BME280;26579;43.238;23.124;2023-02-04T00:36:32;96562.84;;;8.53;42.21
39411;BME280;26579;43.238;23.124;2023-02-04T00:38:58;96551.66;;;8.52;41.21
39411;BME280;26579;43.238;23.124;2023-02-04T00:41:24;96555.16;;;8.51;40.05
39411;BME280;26579;43.238;23.124;2023-02-04T00:43:49;96533.63;;;8.39;39.97
39411;BME280;26579;43.238;23.124;2023-02-04T00:46:15;96551.84;;;8.49;40.31
39411;BME280;26579;43.238;23.124;2023-02-04T00:48:41;96546.34;;;8.31;40.58
39411;BME280;26579;43.238;23.124;2023-02-04T00:51:06;96551.16;;;8.36;40.16
39411;BME280;26579;43.238;23.124;2023-02-04T00:53:32;96556.97;;;8.39;40.45
39411;BME280;26579;43.238;23.124;2023-02-04T00:55:57;96542.91;;;8.31;40.56
39411;BME280;26579;43.238;23.124;2023-02-04T00:58:23;96543.38;;;8.36;40.57
39411;BME280;26579;43.238;23.124;2023-02-04T01:00:49;96541.03;;;8.33;40.55
39411;BME280;26579;43.238;23.124;2023-02-04T01:03:14;96525.47;;;8.33;40.42
39411;BME280;26579;43.238;23.124;2023-02-04T01:05:40;96517.72;;;8.22;40.38
39411;BME280;26579;43.238;23.124;2023-02-04T01:08:06;96535.53;;;8.26;40.43
39411;BME280;26579;43.238;23.124;2023-02-04T01:10:32;96530.19;;;8.28;40.16
39411;BME280;26579;43.238;23.124;2023-02-04T01:12:57;96539.38;;;8.32;40.55
39411;BME280;26579;43.238;23.124;2023-02-04T01:15:23;96521.75;;;8.14;40.45
39411;BME280;26579;43.238;23.124;2023-02-04T01:17:49;96519.03;;;8.16;40.78
39411;BME280;26579;43.238;23.124;2023-02-04T01:20:15;96528.91;;;8.22;40.78
39411;BME280;26579;43.238;23.124;2023-02-04T01:22:41;96521.59;;;8.27;40.62
39411;BME280;26579;43.238;23.124;2023-02-04T01:25:07;96518.88;;;8.40;40.89
39411;BME280;26579;43.238;23.124;2023-02-04T01:27:39;96521.59;;;8.38;40.86
39411;BME280;26579;43.238;23.124;2023-02-04T01:30:06;96514.97;;;8.46;40.04
39411;BME280;26579;43.238;23.124;2023-02-04T01:32:33;96495.75;;;8.48;40.12
39411;BME280;26579;43.238;23.124;2023-02-04T01:34:58;96493.63;;;8.42;40.22
39411;BME280;26579;43.238;23.124;2023-02-04T01:37:24;96497.50;;;8.48;40.32
39411;BME280;26579;43.238;23.124;2023-02-04T01:39:50;96488.53;;;8.52;40.34
39411;BME280;26579;43.238;23.124;2023-02-04T01:42:16;96475.69;;;8.50;40.01
39411;BME280;26579;43.238;23.124;2023-02-04T01:44:42;96467.66;;;8.53;40.35
39411;BME280;26579;43.238;23.124;2023-02-04T01:47:08;96469.44;;;8.53;40.40
39411;BME280;26579;43.238;23.124;2023-02-04T01:49:34;96474.38;;;8.56;40.20
39411;BME280;26579;43.238;23.124;2023-02-04T01:52:01;96460.50;;;8.46;41.10
39411;BME280;26579;43.238;23.124;2023-02-04T01:54:29;96457.13;;;8.55;40.08
39411;BME280;26579;43.238;23.124;2023-02-04T01:56:55;96450.47;;;8.52;39.96
39411;BME280;26579;43.238;23.124;2023-02-04T01:59:22;96432.50;;;8.49;39.46
39411;BME280;26579;43.238;23.124;2023-02-04T02:01:52;96441.47;;;8.56;39.37
39411;BME280;26579;43.238;23.124;2023-02-04T02:04:23;96424.31;;;8.44;39.10
39411;BME280;26579;43.238;23.124;2023-02-04T02:06:56;96416.03;;;8.50;39.62
39411;BME280;26579;43.238;23.124;2023-02-04T02:09:22;96414.19;;;8.41;39.55
39411;BME280;26579;43.238;23.124;2023-02-04T02:11:48;96427.47;;;8.48;39.43
39411;BME280;26579;43.238;23.124;2023-02-04T02:14:14;96430.78;;;8.50;39.06
39411;BME280;26579;43.238;23.124;2023-02-04T02:16:40;96455.75;;;8.51;39.66
39411;BME280;26579;43.238;23.124;2023-02-04T02:19:09;96445.75;;;8.46;40.16
39411;BME280;26579;43.238;23.124;2023-02-04T02:21:48;96460.75;;;8.64;39.21
39411;BME280;26579;43.238;23.124;2023-02-04T02:26:49;96452.31;;;8.61;39.21
39411;BME280;26579;43.238;23.124;2023-02-04T02:29:15;96435.38;;;8.46;38.91
39411;BME280;26579;43.238;23.124;2023-02-04T02:31:41;96432.78;;;8.46;39.41
39411;BME280;26579;43.238;23.124;2023-02-04T02:34:07;96431.84;;;8.47;39.86
39411;BME280;26579;43.238;23.124;2023-02-04T02:36:32;96426.00;;;8.55;39.07
39411;BME280;26579;43.238;23.124;2023-02-04T02:38:58;96426.91;;;8.65;39.27
39411;BME280;26579;43.238;23.124;2023-02-04T02:41:24;96419.44;;;8.72;39.17
39411;BME280;26579;43.238;23.124;2023-02-04T02:43:49;96422.75;;;8.74;39.90
39411;BME280;26579;43.238;23.124;2023-02-04T02:46:15;96406.66;;;8.59;40.46
39411;BME280;26579;43.238;23.124;2023-02-04T02:48:41;96416.28;;;8.68;39.75
39411;BME280;26579;43.238;23.124;2023-02-04T02:51:07;96401.00;;;8.75;40.22
39411;BME280;26579;43.238;23.124;2023-02-04T02:53:32;96397.16;;;8.69;39.98
39411;BME280;26579;43.238;23.124;2023-02-04T02:55:58;96384.56;;;8.65;40.39
39411;BME280;26579;43.238;23.124;2023-02-04T02:58:32;96410.03;;;8.71;40.72
39411;BME280;26579;43.238;23.124;2023-02-04T03:01:00;96406.53;;;8.60;40.41
39411;BME280;26579;43.238;23.124;2023-02-04T03:03:29;96413.44;;;8.50;40.64
39411;BME280;26579;43.238;23.124;2023-02-04T03:06:00;96421.22;;;8.50;40.73
39411;BME280;26579;43.238;23.124;2023-02-04T03:08:26;96419.78;;;8.46;41.45
39411;BME280;26579;43.238;23.124;2023-02-04T03:10:52;96419.06;;;8.55;40.93
39411;BME280;26579;43.238;23.124;2023-02-04T03:13:18;96405.13;;;8.56;40.47
39411;BME280;26579;43.238;23.124;2023-02-04T03:15:45;96395.72;;;8.55;40.14
39411;BME280;26579;43.238;23.124;2023-02-04T03:18:14;96384.75;;;8.52;40.31
39411;BME280;26579;43.238;23.124;2023-02-04T03:20:41;96385.91;;;8.59;40.35
39411;BME280;26579;43.238;23.124;2023-02-04T03:23:07;96390.03;;;8.61;40.60
39411;BME280;26579;43.238;23.124;2023-02-04T03:25:33;96395.22;;;8.61;40.51
39411;BME280;26579;43.238;23.124;2023-02-04T03:27:59;96392.97;;;8.57;40.90
39411;BME280;26579;43.238;23.124;2023-02-04T03:30:25;96394.06;;;8.54;41.08
39411;BME280;26579;43.238;23.124;2023-02-04T03:32:52;96386.72;;;8.59;40.69
39411;BME280;26579;43.238;23.124;2023-02-04T03:35:18;96401.06;;;8.64;40.73
39411;BME280;26579;43.238;23.124;2023-02-04T03:37:43;96390.44;;;8.67;40.93
39411;BME280;26579;43.238;23.124;2023-02-04T03:40:10;96386.53;;;8.51;41.08
39411;BME280;26579;43.238;23.124;2023-02-04T03:42:36;96397.72;;;8.52;41.94
39411;BME280;26579;43.238;23.124;2023-02-04T03:45:02;96389.50;;;8.47;41.72
39411;BME280;26579;43.238;23.124;2023-02-04T03:47:28;96404.44;;;8.54;41.88
39411;BME280;26579;43.238;23.124;2023-02-04T03:49:53;96390.34;;;8.47;41.91
39411;BME280;26579;43.238;23.124;2023-02-04T03:52:19;96390.91;;;8.51;41.50
39411;BME280;26579;43.238;23.124;2023-02-04T03:54:45;96374.56;;;8.39;41.55
39411;BME280;26579;43.238;23.124;2023-02-04T03:57:11;96375.59;;;8.36;42.11
39411;BME280;26579;43.238;23.124;2023-02-04T03:59:37;96378.63;;;8.21;42.59
39411;BME280;26579;43.238;23.124;2023-02-04T04:02:03;96383.38;;;8.15;42.09
39411;BME280;26579;43.238;23.124;2023-02-04T04:04:29;96367.34;;;8.10;42.38
39411;BME280;26579;43.238;23.124;2023-02-04T04:06:54;96351.59;;;8.02;42.66
39411;BME280;26579;43.238;23.124;2023-02-04T04:09:20;96351.53;;;7.92;43.07
39411;BME280;26579;43.238;23.124;2023-02-04T04:11:46;96349.75;;;7.93;42.82
39411;BME280;26579;43.238;23.124;2023-02-04T04:14:12;96357.53;;;7.93;42.70
39411;BME280;26579;43.238;23.124;2023-02-04T04:16:37;96367.06;;;7.92;41.86
39411;BME280;26579;43.238;23.124;2023-02-04T04:19:03;96369.91;;;7.89;42.03
39411;BME280;26579;43.238;23.124;2023-02-04T04:21:29;96379.50;;;7.78;42.70
39411;BME280;26579;43.238;23.124;2023-02-04T04:23:55;96379.72;;;7.75;42.61
39411;BME280;26579;43.238;23.124;2023-02-04T04:26:20;96391.03;;;7.74;42.78
39411;BME280;26579;43.238;23.124;2023-02-04T04:28:46;96403.75;;;7.77;42.79
39411;BME280;26579;43.238;23.124;2023-02-04T04:31:12;96418.94;;;7.70;42.98
39411;BME280;26579;43.238;23.124;2023-02-04T04:33:38;96408.03;;;7.55;43.13
39411;BME280;26579;43.238;23.124;2023-02-04T04:36:04;96419.91;;;7.58;43.14
39411;BME280;26579;43.238;23.124;2023-02-04T04:38:30;96430.63;;;7.64;43.53
39411;BME280;26579;43.238;23.124;2023-02-04T04:40:56;96420.97;;;7.66;42.75
39411;BME280;26579;43.238;23.124;2023-02-04T04:43:21;96437.31;;;7.78;42.85
39411;BME280;26579;43.238;23.124;2023-02-04T04:45:47;96439.81;;;7.80;42.24
39411;BME280;26579;43.238;23.124;2023-02-04T04:48:13;96435.44;;;7.80;41.84
39411;BME280;26579;43.238;23.124;2023-02-04T04:50:38;96441.09;;;7.74;41.99
39411;BME280;26579;43.238;23.124;2023-02-04T04:53:04;96423.31;;;7.69;42.08
39411;BME280;26579;43.238;23.124;2023-02-04T04:55:30;96442.81;;;7.85;41.67
39411;BME280;26579;43.238;23.124;2023-02-04T04:57:55;96440.63;;;7.80;41.61
39411;BME280;26579;43.238;23.124;2023-02-04T05:00:21;96439.91;;;7.78;41.64
39411;BME280;26579;43.238;23.124;2023-02-04T05:02:47;96443.22;;;7.69;40.77
39411;BME280;26579;43.238;23.124;2023-02-04T05:05:13;96437.31;;;7.67;41.32
39411;BME280;26579;43.238;23.124;2023-02-04T05:07:38;96430.50;;;7.66;40.97
39411;BME280;26579;43.238;23.124;2023-02-04T05:10:04;96412.97;;;7.58;41.04
39411;BME280;26579;43.238;23.124;2023-02-04T05:12:30;96412.63;;;7.52;40.98
39411;BME280;26579;43.238;23.124;2023-02-04T05:14:56;96414.25;;;7.41;41.33
39411;BME280;26579;43.238;23.124;2023-02-04T05:17:22;96404.03;;;7.40;41.26
39411;BME280;26579;43.238;23.124;2023-02-04T05:19:47;96414.88;;;7.45;41.96
39411;BME280;26579;43.238;23.124;2023-02-04T05:22:13;96426.63;;;7.49;42.30
39411;BME280;26579;43.238;23.124;2023-02-04T05:24:39;96430.75;;;7.52;41.43
39411;BME280;26579;43.238;23.124;2023-02-04T05:27:04;96414.63;;;7.37;41.50
39411;BME280;26579;43.238;23.124;2023-02-04T05:29:30;96439.34;;;7.52;42.29
39411;BME280;26579;43.238;23.124;2023-02-04T05:31:56;96426.63;;;7.49;42.91
39411;BME280;26579;43.238;23.124;2023-02-04T05:34:21;96418.16;;;7.47;41.21
39411;BME280;26579;43.238;23.124;2023-02-04T05:36:47;96419.56;;;7.51;41.16
39411;BME280;26579;43.238;23.124;2023-02-04T05:39:13;96413.53;;;7.62;41.10
39411;BME280;26579;43.238;23.124;2023-02-04T05:41:38;96403.31;;;7.60;40.61
39411;BME280;26579;43.238;23.124;2023-02-04T05:44:04;96416.34;;;7.70;40.55
39411;BME280;26579;43.238;23.124;2023-02-04T05:46:30;96425.19;;;7.67;41.22
39411;BME280;26579;43.238;23.124;2023-02-04T05:48:55;96422.84;;;7.64;40.49
39411;BME280;26579;43.238;23.124;2023-02-04T05:51:21;96435.78;;;7.64;41.28
39411;BME280;26579;43.238;23.124;2023-02-04T05:53:47;96431.34;;;7.55;42.29
39411;BME280;26579;43.238;23.124;2023-02-04T05:56:12;96418.97;;;7.47;41.50
39411;BME280;26579;43.238;23.124;2023-02-04T05:58:38;96435.84;;;7.42;41.32
39411;BME280;26579;43.238;23.124;2023-02-04T06:01:04;96439.81;;;7.35;42.32
39411;BME280;26579;43.238;23.124;2023-02-04T06:03:30;96435.34;;;7.37;43.57
39411;BME280;26579;43.238;23.124;2023-02-04T06:05:56;96441.00;;;7.31;43.64
39411;BME280;26579;43.238;23.124;2023-02-04T06:08:22;96450.75;;;7.27;44.78
39411;BME280;26579;43.238;23.124;2023-02-04T06:10:48;96424.16;;;7.14;43.58
39411;BME280;26579;43.238;23.124;2023-02-04T06:13:14;96451.94;;;7.23;43.67
39411;BME280;26579;43.238;23.124;2023-02-04T06:15:40;96450.53;;;7.19;44.07
39411;BME280;26579;43.238;23.124;2023-02-04T06:18:05;96450.41;;;7.20;43.56
39411;BME280;26579;43.238;23.124;2023-02-04T06:20:31;96454.88;;;7.18;43.07
39411;BME280;26579;43.238;23.124;2023-02-04T06:22:57;96450.78;;;7.16;45.13
39411;BME280;26579;43.238;23.124;2023-02-04T06:25:24;96461.94;;;7.05;44.32
39411;BME280;26579;43.238;23.124;2023-02-04T06:27:50;96467.69;;;7.09;45.12
39411;BME280;26579;43.238;23.124;2023-02-04T06:30:16;96450.75;;;7.05;44.05
39411;BME280;26579;43.238;23.124;2023-02-04T06:32:42;96463.69;;;7.27;43.17
39411;BME280;26579;43.238;23.124;2023-02-04T06:35:08;96460.31;;;7.38;42.35
39411;BME280;26579;43.238;23.124;2023-02-04T06:37:33;96456.19;;;7.35;42.40
39411;BME280;26579;43.238;23.124;2023-02-04T06:39:59;96461.00;;;7.40;43.77
39411;BME280;26579;43.238;23.124;2023-02-04T06:42:25;96456.75;;;7.61;43.51
39411;BME280;26579;43.238;23.124;2023-02-04T06:44:51;96451.53;;;7.95;42.83
39411;BME280;26579;43.238;23.124;2023-02-04T06:47:17;96437.31;;;8.22;41.40
39411;BME280;26579;43.238;23.124;2023-02-04T06:49:43;96449.34;;;8.23;40.90
39411;BME280;26579;43.238;23.124;2023-02-04T06:52:09;96449.38;;;8.11;41.36
39411;BME280;26579;43.238;23.124;2023-02-04T06:54:35;96437.78;;;8.27;41.29
39411;BME280;26579;43.238;23.124;2023-02-04T06:57:01;96445.84;;;10.09;37.98
39411;BME280;26579;43.238;23.124;2023-02-04T06:59:26;96428.38;;;10.60;37.47
39411;BME280;26579;43.238;23.124;2023-02-04T07:01:52;96440.97;;;10.35;38.04
39411;BME280;26579;43.238;23.124;2023-02-04T07:04:18;96427.25;;;10.04;37.89
39411;BME280;26579;43.238;23.124;2023-02-04T07:06:43;96412.09;;;10.29;37.10
39411;BME280;26579;43.238;23.124;2023-02-04T07:09:09;96413.34;;;11.10;35.50
39411;BME280;26579;43.238;23.124;2023-02-04T07:11:35;96423.63;;;11.87;34.33
39411;BME280;26579;43.238;23.124;2023-02-04T07:14:00;96426.75;;;11.25;34.84
39411;BME280;26579;43.238;23.124;2023-02-04T07:16:26;96441.34;;;11.46;34.77
39411;BME280;26579;43.238;23.124;2023-02-04T07:18:52;96435.25;;;12.38;33.40
39411;BME280;26579;43.238;23.124;2023-02-04T07:21:17;96435.72;;;12.95;32.31
39411;BME280;26579;43.238;23.124;2023-02-04T07:23:43;96439.19;;;12.24;32.96
39411;BME280;26579;43.238;23.124;2023-02-04T07:26:09;96420.31;;;11.57;34.21
39411;BME280;26579;43.238;23.124;2023-02-04T07:28:35;96438.03;;;11.53;34.79
39411;BME280;26579;43.238;23.124;2023-02-04T07:31:00;96431.06;;;11.07;35.21
39411;BME280;26579;43.238;23.124;2023-02-04T07:33:26;96418.16;;;11.15;35.37
39411;BME280;26579;43.238;23.124;2023-02-04T07:35:52;96427.06;;;11.50;34.69
39411;BME280;26579;43.238;23.124;2023-02-04T07:38:17;96431.72;;;12.65;33.08
39411;BME280;26579;43.238;23.124;2023-02-04T07:40:43;96428.16;;;13.36;31.61
39411;BME280;26579;43.238;23.124;2023-02-04T07:43:09;96412.94;;;14.24;30.33
39411;BME280;26579;43.238;23.124;2023-02-04T07:45:35;96408.25;;;13.77;29.25
39411;BME280;26579;43.238;23.124;2023-02-04T07:48:00;96409.59;;;13.47;29.23
39411;BME280;26579;43.238;23.124;2023-02-04T07:50:26;96421.88;;;13.03;30.04
39411;BME280;26579;43.238;23.124;2023-02-04T07:52:52;96418.69;;;12.47;31.59
39411;BME280;26579;43.238;23.124;2023-02-04T07:55:17;96429.91;;;11.94;32.19
39411;BME280;26579;43.238;23.124;2023-02-04T07:57:43;96423.09;;;11.46;33.14
39411;BME280;26579;43.238;23.124;2023-02-04T08:00:09;96427.31;;;11.19;33.74
39411;BME280;26579;43.238;23.124;2023-02-04T08:02:42;96419.34;;;10.74;33.94
39411;BME280;26579;43.238;23.124;2023-02-04T08:05:08;96446.06;;;10.66;35.07
39411;BME280;26579;43.238;23.124;2023-02-04T08:07:34;96434.97;;;10.45;35.73
39411;BME280;26579;43.238;23.124;2023-02-04T08:09:59;96450.66;;;10.24;35.45
39411;BME280;26579;43.238;23.124;2023-02-04T08:12:25;96445.28;;;10.06;36.40
39411;BME280;26579;43.238;23.124;2023-02-04T08:14:54;96450.91;;;10.01;36.47
39411;BME280;26579;43.238;23.124;2023-02-04T08:17:19;96454.06;;;10.05;36.19
39411;BME280;26579;43.238;23.124;2023-02-04T08:19:45;96453.50;;;10.01;36.28
39411;BME280;26579;43.238;23.124;2023-02-04T08:22:11;96456.22;;;9.90;36.52
39411;BME280;26579;43.238;23.124;2023-02-04T08:24:36;96441.38;;;9.71;37.12
39411;BME280;26579;43.238;23.124;2023-02-04T08:27:02;96460.88;;;9.25;38.16
39411;BME280;26579;43.238;23.124;2023-02-04T08:29:28;96471.38;;;9.14;39.26
39411;BME280;26579;43.238;23.124;2023-02-04T08:31:54;96463.56;;;8.72;39.62
39411;BME280;26579;43.238;23.124;2023-02-04T08:34:19;96466.34;;;8.59;40.69
39411;BME280;26579;43.238;23.124;2023-02-04T08:36:45;96456.88;;;8.58;40.82
39411;BME280;26579;43.238;23.124;2023-02-04T08:39:11;96467.16;;;8.59;41.70
39411;BME280;26579;43.238;23.124;2023-02-04T08:41:37;96472.25;;;8.61;42.28
39411;BME280;26579;43.238;23.124;2023-02-04T08:44:03;96463.00;;;8.68;42.68
39411;BME280;26579;43.238;23.124;2023-02-04T08:46:29;96463.25;;;8.65;41.45
39411;BME280;26579;43.238;23.124;2023-02-04T08:48:55;96463.19;;;8.55;41.26
39411;BME280;26579;43.238;23.124;2023-02-04T08:51:21;96461.00;;;8.60;41.20
39411;BME280;26579;43.238;23.124;2023-02-04T08:53:47;96474.19;;;8.69;40.78
39411;BME280;26579;43.238;23.124;2023-02-04T08:56:12;96477.81;;;8.77;41.66
39411;BME280;26579;43.238;23.124;2023-02-04T08:58:38;96480.97;;;8.81;41.14
39411;BME280;26579;43.238;23.124;2023-02-04T09:01:04;96480.03;;;8.82;40.93
39411;BME280;26579;43.238;23.124;2023-02-04T09:03:30;96474.72;;;8.83;40.81
39411;BME280;26579;43.238;23.124;2023-02-04T09:05:55;96484.47;;;8.91;41.08
39411;BME280;26579;43.238;23.124;2023-02-04T09:08:21;96493.06;;;8.92;41.40
39411;BME280;26579;43.238;23.124;2023-02-04T09:10:47;96478.00;;;8.86;40.82
39411;BME280;26579;43.238;23.124;2023-02-04T09:13:12;96478.78;;;8.97;40.64
39411;BME280;26579;43.238;23.124;2023-02-04T09:15:38;96485.09;;;9.04;40.43
39411;BME280;26579;43.238;23.124;2023-02-04T09:18:04;96487.19;;;9.11;40.58
39411;BME280;26579;43.238;23.124;2023-02-04T09:20:29;96482.13;;;9.09;41.00
39411;BME280;26579;43.238;23.124;2023-02-04T09:22:55;96477.38;;;9.14;39.84
39411;BME280;26579;43.238;23.124;2023-02-04T09:25:21;96470.16;;;9.18;42.26
39411;BME280;26579;43.238;23.124;2023-02-04T09:27:46;96491.94;;;9.26;42.81
39411;BME280;26579;43.238;23.124;2023-02-04T09:30:12;96491.22;;;9.24;43.58
39411;BME280;26579;43.238;23.124;2023-02-04T09:32:38;96471.28;;;9.04;43.81
39411;BME280;26579;43.238;23.124;2023-02-04T09:35:04;96478.25;;;9.03;44.47
39411;BME280;26579;43.238;23.124;2023-02-04T09:37:30;96485.59;;;8.98;45.22
39411;BME280;26579;43.238;23.124;2023-02-04T09:39:55;96501.00;;;8.90;45.52
39411;BME280;26579;43.238;23.124;2023-02-04T09:42:23;96491.69;;;8.88;45.42
39411;BME280;26579;43.238;23.124;2023-02-04T09:44:50;96491.56;;;8.89;45.64
39411;BME280;26579;43.238;23.124;2023-02-04T09:47:17;96494.09;;;8.79;45.70
39411;BME280;26579;43.238;23.124;2023-02-04T09:49:46;96498.78;;;8.86;46.33
39411;BME280;26579;43.238;23.124;2023-02-04T09:52:13;96494.28;;;8.88;46.07
39411;BME280;26579;43.238;23.124;2023-02-04T09:54:41;96496.03;;;8.87;46.06
39411;BME280;26579;43.238;23.124;2023-02-04T09:57:14;96494.38;;;8.65;47.39
39411;BME280;26579;43.238;23.124;2023-02-04T09:59:42;96505.47;;;8.67;47.17
39411;BME280;26579;43.238;23.124;2023-02-04T10:02:24;96493.94;;;8.60;47.39
39411;BME280;26579;43.238;23.124;2023-02-04T10:04:51;96501.84;;;8.58;47.71
39411;BME280;26579;43.238;23.124;2023-02-04T10:07:21;96495.75;;;8.48;48.08
39411;BME280;26579;43.238;23.124;2023-02-04T10:09:47;96491.50;;;8.47;48.09
39411;BME280;26579;43.238;23.124;2023-02-04T10:12:13;96494.78;;;8.49;48.67
39411;BME280;26579;43.238;23.124;2023-02-04T10:14:39;96491.75;;;8.44;49.18
39411;BME280;26579;43.238;23.124;2023-02-04T10:17:07;96490.69;;;8.47;49.04
39411;BME280;26579;43.238;23.124;2023-02-04T10:19:33;96484.66;;;8.46;50.05
39411;BME280;26579;43.238;23.124;2023-02-04T10:21:59;96487.00;;;8.49;50.29
39411;BME280;26579;43.238;23.124;2023-02-04T10:24:26;96485.50;;;8.47;50.39
39411;BME280;26579;43.238;23.124;2023-02-04T10:26:53;96471.38;;;8.39;50.19
39411;BME280;26579;43.238;23.124;2023-02-04T10:29:22;96474.16;;;8.36;50.58
39411;BME280;26579;43.238;23.124;2023-02-04T10:31:49;96490.09;;;8.32;51.29
39411;BME280;26579;43.238;23.124;2023-02-04T10:34:20;96491.78;;;8.22;51.28
39411;BME280;26579;43.238;23.124;2023-02-04T10:36:52;96488.16;;;8.13;51.85
39411;BME280;26579;43.238;23.124;2023-02-04T10:39:21;96487.69;;;8.08;51.69
39411;BME280;26579;43.238;23.124;2023-02-04T10:44:29;96488.06;;;8.03;51.56
39411;BME280;26579;43.238;23.124;2023-02-04T10:47:03;96478.53;;;7.92;52.49
39411;BME280;26579;43.238;23.124;2023-02-04T10:49:29;96468.06;;;7.83;52.28
39411;BME280;26579;43.238;23.124;2023-02-04T10:51:56;96473.59;;;7.89;52.31
39411;BME280;26579;43.238;23.124;2023-02-04T10:54:27;96480.78;;;7.97;52.34
39411;BME280;26579;43.238;23.124;2023-02-04T10:57:27;96482.66;;;7.95;52.83
39411;BME280;26579;43.238;23.124;2023-02-04T10:59:59;96473.13;;;7.84;53.80
39411;BME280;26579;43.238;23.124;2023-02-04T11:02:48;96470.03;;;7.79;53.20
39411;BME280;26579;43.238;23.124;2023-02-04T11:05:24;96461.34;;;7.80;53.99
39411;BME280;26579;43.238;23.124;2023-02-04T11:07:53;96459.81;;;7.66;53.88
39411;BME280;26579;43.238;23.124;2023-02-04T11:10:22;96463.72;;;7.72;54.24
39411;BME280;26579;43.238;23.124;2023-02-04T11:18:08;96460.53;;;7.68;56.41
39411;BME280;26579;43.238;23.124;2023-02-04T11:20:34;96450.91;;;7.59;55.81
39411;BME280;26579;43.238;23.124;2023-02-04T11:26:10;96446.19;;;7.42;58.57
39411;BME280;26579;43.238;23.124;2023-02-04T11:33:45;96453.69;;;7.56;58.32
39411;BME280;26579;43.238;23.124;2023-02-04T11:36:13;96456.53;;;7.64;58.25
39411;BME280;26579;43.238;23.124;2023-02-04T11:38:44;96451.81;;;7.69;58.67
39411;BME280;26579;43.238;23.124;2023-02-04T11:41:18;96445.44;;;7.74;58.71
39411;BME280;26579;43.238;23.124;2023-02-04T11:43:52;96440.03;;;7.77;59.06
39411;BME280;26579;43.238;23.124;2023-02-04T11:46:22;96441.78;;;7.76;57.26
39411;BME280;26579;43.238;23.124;2023-02-04T11:48:55;96428.16;;;7.74;58.65
39411;BME280;26579;43.238;23.124;2023-02-04T11:51:32;96428.81;;;7.87;57.58
39411;BME280;26579;43.238;23.124;2023-02-04T11:53:58;96420.69;;;7.92;57.17
39411;BME280;26579;43.238;23.124;2023-02-04T11:56:27;96428.94;;;7.97;57.00
39411;BME280;26579;43.238;23.124;2023-02-04T11:58:56;96428.34;;;7.82;57.28
39411;BME280;26579;43.238;23.124;2023-02-04T12:01:32;96417.53;;;7.88;57.31
39411;BME280;26579;43.238;23.124;2023-02-04T12:04:00;96427.22;;;8.07;56.92
39411;BME280;26579;43.238;23.124;2023-02-04T12:06:31;96431.69;;;8.16;56.64
39411;BME280;26579;43.238;23.124;2023-02-04T12:09:23;96436.97;;;8.26;56.68
39411;BME280;26579;43.238;23.124;2023-02-04T12:14:21;96441.91;;;8.29;55.81
39411;BME280;26579;43.238;23.124;2023-02-04T12:16:52;96432.97;;;8.22;55.63
39411;BME280;26579;43.238;23.124;2023-02-04T12:19:18;96445.09;;;8.22;56.58
39411;BME280;26579;43.238;23.124;2023-02-04T12:21:44;96441.22;;;8.16;56.78
39411;BME280;26579;43.238;23.124;2023-02-04T12:24:09;96450.56;;;8.07;56.43
39411;BME280;26579;43.238;23.124;2023-02-04T12:26:35;96457.31;;;7.87;56.15
39411;BME280;26579;43.238;23.124;2023-02-04T12:29:01;96450.28;;;7.67;57.79
39411;BME280;26579;43.238;23.124;2023-02-04T12:31:27;96443.47;;;7.55;57.92
39411;BME280;26579;43.238;23.124;2023-02-04T12:33:56;96449.69;;;7.63;57.56
39411;BME280;26579;43.238;23.124;2023-02-04T12:36:24;96468.41;;;7.67;58.21
39411;BME280;26579;43.238;23.124;2023-02-04T12:38:50;96452.53;;;7.60;56.93
39411;BME280;26579;43.238;23.124;2023-02-04T12:41:16;96456.53;;;7.64;57.58
39411;BME280;26579;43.238;23.124;2023-02-04T12:43:42;96455.94;;;7.61;59.06
39411;BME280;26579;43.238;23.124;2023-02-04T12:46:07;96454.53;;;7.57;58.66
39411;BME280;26579;43.238;23.124;2023-02-04T12:48:33;96458.44;;;7.62;59.69
39411;BME280;26579;43.238;23.124;2023-02-04T12:50:59;96451.72;;;7.60;58.67
39411;BME280;26579;43.238;23.124;2023-02-04T12:53:30;96453.50;;;7.59;59.24
39411;BME280;26579;43.238;23.124;2023-02-04T12:56:31;96463.38;;;7.43;59.21
39411;BME280;26579;43.238;23.124;2023-02-04T12:58:57;96460.31;;;7.38;61.33
39411;BME280;26579;43.238;23.124;2023-02-04T13:01:23;96465.94;;;7.32;60.79
39411;BME280;26579;43.238;23.124;2023-02-04T13:03:56;96471.25;;;7.41;60.89
39411;BME280;26579;43.238;23.124;2023-02-04T13:06:21;96464.09;;;7.45;60.26
39411;BME280;26579;43.238;23.124;2023-02-04T13:08:47;96462.66;;;7.52;60.03
39411;BME280;26579;43.238;23.124;2023-02-04T13:11:13;96459.59;;;7.58;59.60
39411;BME280;26579;43.238;23.124;2023-02-04T13:13:38;96454.41;;;7.58;60.20
39411;BME280;26579;43.238;23.124;2023-02-04T13:16:04;96449.00;;;7.61;61.19
39411;BME280;26579;43.238;23.124;2023-02-04T13:18:30;96436.28;;;7.58;59.89